Time;durP1;ratioP1;P1;durP2;ratioP2;P2;SDS_P1;SDS_P2;PMS_P1;PMS_P2;Temp;Humidity;BMP_temperature;BMP_pressure;BME280_temperature;BME280_humidity;BME280_pressure;Samples;Min_cycle;Max_cycle;Signal;HPM_P1;HPM_P2
2022/09/19 00:01:31;;;;;;;1.77;0.90;;;15.10;65.00;;;;;;5026356;28;20444;-47
2022/09/19 00:04:02;;;;;;;0.90;0.70;;;15.00;65.40;;;;;;5024832;28;20451;-47
2022/09/19 00:06:29;;;;;;;1.00;0.90;;;15.00;65.20;;;;;;5022130;28;20589;-47
2022/09/19 00:08:56;;;;;;;5.30;0.90;;;14.90;65.60;;;;;;5024253;28;20550;-46
2022/09/19 00:11:22;;;;;;;1.00;0.80;;;15.00;66.30;;;;;;5029040;28;20509;-47
2022/09/19 00:13:50;;;;;;;0.70;0.70;;;14.90;65.40;;;;;;5020240;28;20491;-47
2022/09/19 00:16:26;;;;;;;1.27;0.80;;;14.90;65.70;;;;;;5023329;28;20443;-48
2022/09/19 00:18:53;;;;;;;0.90;0.90;;;14.70;66.40;;;;;;5030371;28;20451;-47
2022/09/19 00:21:24;;;;;;;1.13;0.87;;;14.70;67.10;;;;;;5023791;28;20522;-47
2022/09/19 00:26:37;;;;;;;1.00;0.73;;;14.80;66.60;;;;;;5025973;28;20502;-47
2022/09/19 00:29:03;;;;;;;2.00;0.80;;;14.70;65.80;;;;;;5028842;28;20543;-50
2022/09/19 00:31:29;;;;;;;0.93;0.90;;;14.60;65.60;;;;;;5028583;28;20447;-47
2022/09/19 00:33:55;;;;;;;1.80;0.63;;;14.50;65.20;;;;;;5028146;28;20495;-48
2022/09/19 00:36:21;;;;;;;0.60;0.60;;;14.50;65.50;;;;;;5010651;28;20617;-48
2022/09/19 00:38:47;;;;;;;0.70;0.67;;;14.50;64.90;;;;;;5025250;28;20276;-48
2022/09/19 00:41:15;;;;;;;1.37;0.70;;;14.50;64.70;;;;;;5028311;28;20494;-48
2022/09/19 00:43:51;;;;;;;0.70;0.70;;;14.50;64.50;;;;;;5026729;28;20934;-51
2022/09/19 00:46:17;;;;;;;0.60;0.60;;;14.50;64.30;;;;;;5027352;28;20452;-49
2022/09/19 00:48:47;;;;;;;0.67;0.67;;;14.60;63.80;;;;;;5031565;28;20450;-47
2022/09/19 00:51:18;;;;;;;0.67;0.67;;;14.60;63.40;;;;;;5023045;28;20441;-47
2022/09/19 00:53:46;;;;;;;0.90;0.50;;;14.60;63.20;;;;;;5025152;28;20487;-47
2022/09/19 00:56:13;;;;;;;1.27;0.63;;;14.60;62.60;;;;;;5031076;28;20440;-49
2022/09/19 00:58:44;;;;;;;0.60;0.60;;;14.50;62.70;;;;;;5028865;28;20865;-48
2022/09/19 01:01:14;;;;;;;1.33;0.60;;;14.50;62.80;;;;;;5021270;28;20540;-48
2022/09/19 01:03:41;;;;;;;0.60;0.60;;;14.40;62.60;;;;;;5027168;28;20436;-49
2022/09/19 01:06:19;;;;;;;0.70;0.70;;;14.30;62.90;;;;;;5023637;28;20436;-48
2022/09/19 01:09:02;;;;;;;0.60;0.60;;;14.40;63.10;;;;;;5021266;28;20507;-48
2022/09/19 01:12:16;;;;;;;0.70;0.70;;;14.40;62.40;;;;;;5023638;28;20449;-48
2022/09/19 01:14:53;;;;;;;0.70;0.70;;;14.50;62.20;;;;;;4994633;28;20460;-50
2022/09/19 01:17:31;;;;;;;0.63;0.60;;;14.50;61.80;;;;;;5019014;28;20448;-48
2022/09/19 01:20:06;;;;;;;0.70;0.70;;;14.40;62.00;;;;;;5022426;28;20448;-50
2022/09/19 01:23:03;;;;;;;0.70;0.70;;;14.50;62.00;;;;;;5025319;28;22123;-47
2022/09/19 01:25:53;;;;;;;0.60;0.60;;;14.50;61.70;;;;;;5022267;28;20869;-51
2022/09/19 01:28:32;;;;;;;0.97;0.60;;;14.50;61.40;;;;;;5023317;28;20854;-48
2022/09/19 01:31:18;;;;;;;0.60;0.50;;;14.50;61.20;;;;;;5021778;28;20482;-47
2022/09/19 01:34:05;;;;;;;0.60;0.50;;;14.40;61.40;;;;;;5017753;28;20489;-49
2022/09/19 01:36:39;;;;;;;0.80;0.80;;;14.40;61.30;;;;;;5018888;28;20642;-47
2022/09/19 01:39:08;;;;;;;0.67;0.60;;;14.40;61.20;;;;;;5023650;28;20594;-51
2022/09/19 01:41:34;;;;;;;0.70;0.70;;;14.40;60.80;;;;;;5021778;28;20450;-46
2022/09/19 01:44:04;;;;;;;0.63;0.63;;;14.40;60.50;;;;;;5027519;28;20440;-51
2022/09/19 01:46:41;;;;;;;0.83;0.60;;;14.40;60.30;;;;;;5023403;28;20291;-51
2022/09/19 01:49:38;;;;;;;0.90;0.50;;;14.50;60.30;;;;;;5029468;28;20454;-46
2022/09/19 01:52:37;;;;;;;0.60;0.60;;;14.40;59.90;;;;;;5021774;28;20449;-48
2022/09/19 01:55:33;;;;;;;0.50;0.50;;;14.40;60.20;;;;;;5024354;28;20456;-50
2022/09/19 01:58:23;;;;;;;1.67;0.60;;;14.30;60.40;;;;;;5025492;28;20444;-49
2022/09/19 02:01:18;;;;;;;0.50;0.40;;;14.30;60.60;;;;;;5020813;28;20452;-52
2022/09/19 02:03:52;;;;;;;0.60;0.60;;;14.30;60.60;;;;;;5024342;28;20456;-47
2022/09/19 02:06:42;;;;;;;0.50;0.50;;;14.30;60.60;;;;;;5024704;28;20444;-48
2022/09/19 02:09:28;;;;;;;1.00;0.70;;;14.30;60.30;;;;;;5019113;28;20845;-48
2022/09/19 02:11:59;;;;;;;2.30;0.70;;;14.30;59.90;;;;;;5027030;28;20471;-50
2022/09/19 02:14:28;;;;;;;3.60;1.47;;;14.20;60.00;;;;;;5029523;28;20459;-47
2022/09/19 02:17:06;;;;;;;1.20;0.70;;;14.20;59.80;;;;;;5023238;28;20424;-49
2022/09/19 02:19:45;;;;;;;0.90;0.77;;;14.20;59.70;;;;;;5026385;28;20497;-47
2022/09/19 02:22:20;;;;;;;0.63;0.57;;;14.20;59.80;;;;;;5028416;28;20456;-49
2022/09/19 02:24:49;;;;;;;0.60;0.60;;;14.10;59.40;;;;;;5019744;28;20424;-49
2022/09/19 02:27:25;;;;;;;0.50;0.50;;;14.00;59.70;;;;;;5025642;28;20502;-48
2022/09/19 02:29:58;;;;;;;0.60;0.50;;;14.00;59.90;;;;;;5030038;28;20466;-47
2022/09/19 02:32:24;;;;;;;0.60;0.60;;;14.00;60.20;;;;;;5028734;28;20519;-47
2022/09/19 02:34:53;;;;;;;1.30;1.00;;;14.00;60.70;;;;;;5027616;28;20447;-47
2022/09/19 02:37:35;;;;;;;0.80;0.80;;;14.00;61.00;;;;;;5028503;28;20973;-49
2022/09/19 02:40:04;;;;;;;3.03;0.70;;;14.10;61.40;;;;;;5027498;28;20530;-48
2022/09/19 02:42:51;;;;;;;1.30;1.03;;;14.00;61.60;;;;;;5029851;28;20448;-50
2022/09/19 02:45:29;;;;;;;0.70;0.70;;;14.00;61.50;;;;;;5028053;28;20439;-48
2022/09/19 02:48:05;;;;;;;0.90;0.70;;;14.00;61.70;;;;;;5029867;28;20536;-48
2022/09/19 02:50:46;;;;;;;2.77;1.00;;;14.10;61.70;;;;;;5024553;28;20439;-48
2022/09/19 02:53:16;;;;;;;5.80;0.90;;;14.10;61.90;;;;;;5027232;28;20491;-47
2022/09/19 02:55:52;;;;;;;1.00;0.90;;;14.10;62.10;;;;;;5027770;28;20582;-48
2022/09/19 02:58:21;;;;;;;1.83;0.80;;;14.10;61.90;;;;;;5024471;28;20451;-48
2022/09/19 03:00:52;;;;;;;0.80;0.80;;;14.10;61.90;;;;;;5023618;28;20867;-48
2022/09/19 03:06:30;;;;;;;1.10;0.80;;;14.00;62.40;;;;;;5027298;28;20450;-46
2022/09/19 03:08:57;;;;;;;1.07;0.77;;;13.80;62.80;;;;;;5029239;28;20448;-47
2022/09/19 03:11:27;;;;;;;1.43;0.87;;;13.80;62.90;;;;;;5029225;28;20550;-50
2022/09/19 03:13:57;;;;;;;1.97;0.80;;;13.80;62.90;;;;;;5027694;28;20483;-48
2022/09/19 03:16:34;;;;;;;0.83;0.80;;;14.00;62.70;;;;;;5020628;28;20459;-49
2022/09/19 03:19:02;;;;;;;1.27;0.80;;;14.10;62.40;;;;;;5026612;28;20506;-47
2022/09/19 03:21:27;;;;;;;0.73;0.73;;;14.00;62.20;;;;;;5024827;28;20436;-49
2022/09/19 03:23:58;;;;;;;6.80;2.40;;;13.80;62.70;;;;;;5024855;28;20435;-47
2022/09/19 03:26:30;;;;;;;2.93;1.13;;;13.70;62.80;;;;;;5028373;28;20223;-47
2022/09/19 03:28:57;;;;;;;1.50;1.07;;;13.80;62.70;;;;;;5023728;28;20455;-48
2022/09/19 03:31:24;;;;;;;1.03;0.90;;;13.60;62.80;;;;;;5015385;28;20523;-47
2022/09/19 03:33:51;;;;;;;2.57;1.10;;;13.80;62.70;;;;;;5023441;28;20855;-47
2022/09/19 03:36:18;;;;;;;5.73;1.10;;;13.70;62.50;;;;;;5020737;28;20471;-48
2022/09/19 03:38:44;;;;;;;2.00;0.77;;;13.80;62.40;;;;;;5026152;28;20436;-47
2022/09/19 03:41:14;;;;;;;5.20;1.00;;;13.80;62.40;;;;;;5024505;28;20487;-48
2022/09/19 03:43:43;;;;;;;5.97;1.30;;;13.60;62.60;;;;;;5023361;28;20732;-46
2022/09/19 03:46:13;;;;;;;1.87;0.93;;;13.60;63.00;;;;;;5026039;28;20440;-47
2022/09/19 03:48:40;;;;;;;2.07;0.83;;;13.50;63.50;;;;;;5030325;28;20447;-46
2022/09/19 03:51:06;;;;;;;3.00;0.83;;;13.60;63.40;;;;;;5017960;28;20440;-48
2022/09/19 03:53:33;;;;;;;1.30;0.80;;;13.60;63.30;;;;;;5021210;28;20848;-47
2022/09/19 03:56:00;;;;;;;2.70;1.20;;;13.50;63.20;;;;;;5026435;28;20452;-48
2022/09/19 03:58:25;;;;;;;2.03;0.90;;;13.50;63.60;;;;;;5016729;28;20444;-49
2022/09/19 04:00:51;;;;;;;6.63;1.00;;;13.50;63.40;;;;;;5030347;28;20447;-47
2022/09/19 04:03:18;;;;;;;1.77;0.90;;;13.40;63.60;;;;;;5030325;28;20244;-51
2022/09/19 04:05:44;;;;;;;1.30;0.83;;;13.30;63.70;;;;;;5028338;28;20918;-50
2022/09/19 04:08:11;;;;;;;1.10;0.87;;;13.20;64.80;;;;;;5030857;28;20447;-47
2022/09/19 04:10:37;;;;;;;2.10;1.20;;;13.20;64.90;;;;;;5030352;28;20447;-48
2022/09/19 04:13:03;;;;;;;4.23;1.23;;;13.20;65.70;;;;;;5033418;28;20511;-48
2022/09/19 04:15:29;;;;;;;4.20;1.07;;;13.40;64.40;;;;;;5030700;28;20860;-47
2022/09/19 04:17:54;;;;;;;2.67;1.13;;;13.50;64.10;;;;;;5030223;28;20435;-47
2022/09/19 04:20:23;;;;;;;3.00;1.20;;;13.40;64.50;;;;;;5032270;28;20656;-48
2022/09/19 04:22:49;;;;;;;2.90;1.03;;;13.20;64.30;;;;;;5031931;28;20675;-48
2022/09/19 04:25:15;;;;;;;1.27;0.93;;;13.10;65.30;;;;;;5028578;28;20448;-51
2022/09/19 04:27:40;;;;;;;2.00;1.00;;;13.10;65.50;;;;;;5030452;28;20193;-47
2022/09/19 04:30:07;;;;;;;1.60;1.27;;;13.10;65.60;;;;;;5030759;28;20494;-49
2022/09/19 04:32:32;;;;;;;2.43;0.97;;;13.20;65.60;;;;;;5032938;28;20245;-47
2022/09/19 04:34:59;;;;;;;2.67;1.23;;;13.30;65.20;;;;;;5029281;28;20462;-48
2022/09/19 04:37:26;;;;;;;7.70;1.40;;;13.40;64.90;;;;;;5030558;28;20193;-47
2022/09/19 04:39:52;;;;;;;2.10;0.87;;;13.50;64.30;;;;;;5027707;28;20447;-47
2022/09/19 04:42:18;;;;;;;3.50;1.33;;;13.40;64.90;;;;;;5031774;28;20436;-49
2022/09/19 04:44:44;;;;;;;2.60;1.10;;;13.40;64.70;;;;;;5029622;28;20205;-48
2022/09/19 04:47:10;;;;;;;1.50;1.07;;;13.60;64.50;;;;;;5030548;28;20535;-49
2022/09/19 04:49:39;;;;;;;1.63;1.10;;;13.70;64.10;;;;;;5029790;28;20490;-47
2022/09/19 04:52:06;;;;;;;3.90;1.37;;;13.80;63.80;;;;;;5030917;28;20452;-49
2022/09/19 04:54:37;;;;;;;4.00;1.13;;;13.70;63.90;;;;;;5025996;28;20498;-47
2022/09/19 04:57:06;;;;;;;6.47;1.33;;;13.60;63.80;;;;;;5028720;28;20534;-47
2022/09/19 04:59:34;;;;;;;3.63;1.10;;;13.70;63.90;;;;;;5026988;28;20479;-47
2022/09/19 05:02:00;;;;;;;5.10;1.30;;;13.70;63.40;;;;;;5031432;28;20438;-47
2022/09/19 05:04:26;;;;;;;2.67;0.93;;;13.80;63.50;;;;;;5031243;28;20455;-47
2022/09/19 05:06:52;;;;;;;5.50;1.20;;;13.90;63.40;;;;;;5026225;28;20432;-46
2022/09/19 05:09:18;;;;;;;4.43;1.20;;;13.80;63.00;;;;;;5023788;28;20190;-49
2022/09/19 05:11:46;;;;;;;6.37;2.40;;;13.80;63.20;;;;;;5024274;28;20681;-47
2022/09/19 05:14:14;;;;;;;5.60;1.43;;;14.00;63.20;;;;;;5024668;28;20545;-48
2022/09/19 05:16:41;;;;;;;5.37;1.80;;;14.00;62.90;;;;;;5028796;28;20471;-48
2022/09/19 05:19:07;;;;;;;3.00;1.40;;;14.00;63.20;;;;;;5032137;28;20510;-50
2022/09/19 05:21:33;;;;;;;5.40;2.50;;;14.10;63.70;;;;;;5027649;28;20463;-51
2022/09/19 05:24:00;;;;;;;8.33;1.57;;;14.20;63.10;;;;;;5022594;28;20930;-47
2022/09/19 05:26:26;;;;;;;5.50;1.13;;;14.20;62.70;;;;;;5030487;28;20997;-50
2022/09/19 05:28:51;;;;;;;4.97;1.33;;;14.30;62.60;;;;;;5031544;28;20436;-47
2022/09/19 05:31:18;;;;;;;6.53;1.70;;;14.30;62.70;;;;;;5022758;28;20208;-52
2022/09/19 05:33:45;;;;;;;2.63;1.23;;;14.40;62.30;;;;;;5029899;28;20237;-47
2022/09/19 05:36:10;;;;;;;4.17;1.23;;;14.30;62.30;;;;;;5031073;28;20486;-47
2022/09/19 05:38:36;;;;;;;2.63;1.40;;;14.40;62.40;;;;;;5030384;28;20447;-47
2022/09/19 05:41:03;;;;;;;7.63;1.17;;;14.30;61.80;;;;;;5027087;28;20197;-46
2022/09/19 05:43:29;;;;;;;1.87;1.13;;;14.10;62.60;;;;;;5031141;28;20197;-47
2022/09/19 05:45:56;;;;;;;5.60;1.13;;;14.30;62.90;;;;;;5029159;28;20525;-47
2022/09/19 05:48:23;;;;;;;3.93;1.30;;;14.40;62.40;;;;;;5031387;28;20436;-47
2022/09/19 05:50:50;;;;;;;3.40;1.30;;;14.40;62.00;;;;;;5030424;28;20440;-47
2022/09/19 05:56:03;;;;;;;2.43;1.20;;;14.60;61.90;;;;;;5027959;28;20493;-47
2022/09/19 05:58:29;;;;;;;4.70;1.50;;;14.60;61.70;;;;;;5030092;28;20450;-47
2022/09/19 06:00:55;;;;;;;5.10;1.50;;;14.70;61.40;;;;;;5027902;28;20447;-48
2022/09/19 06:03:21;;;;;;;5.07;2.20;;;14.80;61.20;;;;;;5031521;28;20559;-47
2022/09/19 06:05:49;;;;;;;5.50;2.10;;;14.70;60.90;;;;;;5029294;28;20296;-48
2022/09/19 06:08:22;;;;;;;5.57;2.00;;;14.70;61.00;;;;;;5030892;28;20478;-47
2022/09/19 06:10:48;;;;;;;3.13;1.43;;;14.60;61.10;;;;;;5025742;28;20444;-47
2022/09/19 06:13:20;;;;;;;2.67;1.57;;;14.60;61.20;;;;;;5027221;28;21133;-48
2022/09/19 06:15:46;;;;;;;10.70;1.47;;;14.70;61.00;;;;;;5028337;28;20786;-51
2022/09/19 06:18:12;;;;;;;4.80;2.03;;;14.70;61.00;;;;;;5018864;28;20459;-48
2022/09/19 06:20:42;;;;;;;3.40;1.30;;;14.60;61.40;;;;;;5020079;28;20537;-49
2022/09/19 06:23:12;;;;;;;4.43;1.40;;;14.60;61.50;;;;;;5024933;28;20456;-49
2022/09/19 06:25:38;;;;;;;5.37;2.00;;;14.60;61.80;;;;;;5024143;28;20448;-48
2022/09/19 06:28:10;;;;;;;12.43;2.60;;;14.70;61.70;;;;;;5026069;28;20440;-46
2022/09/19 06:30:37;;;;;;;4.63;2.00;;;14.80;61.70;;;;;;5028130;28;20454;-47
2022/09/19 06:33:06;;;;;;;7.20;1.90;;;14.90;61.40;;;;;;5029985;28;20523;-51
2022/09/19 06:35:32;;;;;;;10.10;2.10;;;14.90;61.10;;;;;;5030089;28;20466;-51
2022/09/19 06:38:02;;;;;;;6.87;1.40;;;14.90;60.70;;;;;;5027924;28;20440;-47
2022/09/19 06:40:29;;;;;;;11.47;1.60;;;14.80;61.10;;;;;;5022572;28;20549;-47
2022/09/19 06:43:03;;;;;;;8.00;1.93;;;14.70;61.40;;;;;;5014991;28;20917;-48
2022/09/19 06:45:29;;;;;;;3.00;1.27;;;14.50;62.00;;;;;;5027842;28;20424;-48
2022/09/19 06:47:59;;;;;;;4.43;1.50;;;14.50;62.90;;;;;;5028789;28;20458;-53
2022/09/19 06:50:26;;;;;;;6.00;1.97;;;14.50;62.30;;;;;;5029726;28;20452;-50
2022/09/19 06:52:52;;;;;;;4.00;1.50;;;14.60;62.70;;;;;;5027026;28;20558;-47
2022/09/19 06:55:17;;;;;;;6.53;1.60;;;14.50;62.70;;;;;;5029618;28;20926;-47
2022/09/19 06:57:43;;;;;;;4.43;1.30;;;14.50;62.90;;;;;;5029534;28;21186;-47
2022/09/19 07:00:10;;;;;;;3.07;1.60;;;14.60;62.80;;;;;;5024076;28;20271;-51
2022/09/19 07:02:36;;;;;;;7.57;1.50;;;14.70;63.00;;;;;;5031104;28;20436;-48
2022/09/19 07:05:01;;;;;;;4.30;1.90;;;14.80;62.90;;;;;;5028596;28;20427;-51
2022/09/19 07:07:27;;;;;;;4.10;1.93;;;14.60;62.70;;;;;;5030344;28;20480;-48
2022/09/19 07:09:52;;;;;;;3.37;1.90;;;14.60;62.70;;;;;;5030050;28;20208;-48
2022/09/19 07:12:18;;;;;;;3.23;1.50;;;14.70;63.20;;;;;;5026887;28;20205;-48
2022/09/19 07:14:43;;;;;;;7.90;2.17;;;14.70;63.10;;;;;;5030327;28;20193;-50
2022/09/19 07:17:12;;;;;;;7.67;1.87;;;14.70;62.90;;;;;;5027853;28;20197;-48
2022/09/19 07:19:38;;;;;;;7.90;1.80;;;14.60;62.90;;;;;;5032317;28;20220;-48
2022/09/19 07:22:06;;;;;;;6.53;1.90;;;14.50;62.80;;;;;;5016155;28;20436;-48
2022/09/19 07:24:31;;;;;;;5.80;1.40;;;14.40;63.50;;;;;;5032847;28;20470;-49
2022/09/19 07:26:57;;;;;;;5.70;2.10;;;14.50;63.50;;;;;;5029351;28;20443;-48
2022/09/19 07:29:22;;;;;;;2.20;1.20;;;14.70;63.10;;;;;;5032608;28;20193;-50
2022/09/19 07:31:48;;;;;;;5.50;2.60;;;14.80;62.50;;;;;;5032095;28;20548;-48
2022/09/19 07:34:14;;;;;;;4.13;1.83;;;15.10;61.80;;;;;;5033740;28;20221;-47
2022/09/19 07:36:39;;;;;;;3.97;2.47;;;15.30;61.40;;;;;;5029806;28;20197;-51
2022/09/19 07:39:05;;;;;;;5.30;1.90;;;15.40;61.10;;;;;;5027337;28;20704;-50
2022/09/19 07:41:30;;;;;;;6.13;2.20;;;15.50;60.80;;;;;;5029406;28;20186;-50
2022/09/19 07:43:56;;;;;;;6.50;1.87;;;15.50;60.50;;;;;;5033102;28;20189;-48
2022/09/19 07:46:23;;;;;;;5.27;1.93;;;15.40;60.40;;;;;;5033315;28;20190;-50
2022/09/19 07:48:49;;;;;;;5.30;1.97;;;15.20;60.90;;;;;;5031720;28;20205;-48
2022/09/19 07:51:14;;;;;;;3.43;1.40;;;15.30;61.20;;;;;;5030238;28;20820;-48
2022/09/19 07:53:40;;;;;;;4.87;1.67;;;15.30;61.10;;;;;;5031865;28;20256;-50
2022/09/19 07:56:05;;;;;;;4.60;1.70;;;15.30;61.00;;;;;;5031453;28;20220;-52
2022/09/19 07:58:31;;;;;;;4.10;1.60;;;15.30;60.80;;;;;;5016417;28;20205;-52
2022/09/19 08:01:01;;;;;;;4.73;1.97;;;15.50;60.70;;;;;;5029740;28;20247;-48
2022/09/19 08:03:26;;;;;;;8.40;1.80;;;15.40;60.60;;;;;;5031611;28;20197;-50
2022/09/19 08:05:52;;;;;;;5.40;1.40;;;15.20;60.40;;;;;;5031344;28;20455;-50
2022/09/19 08:08:21;;;;;;;11.23;2.20;;;15.30;60.90;;;;;;5033322;28;20451;-48
2022/09/19 08:10:47;;;;;;;3.40;1.70;;;15.20;60.70;;;;;;5031884;28;20221;-48
2022/09/19 08:13:13;;;;;;;8.70;2.20;;;15.20;60.90;;;;;;5023913;28;20523;-48
2022/09/19 08:15:40;;;;;;;3.67;1.60;;;15.30;61.20;;;;;;5032746;28;20258;-50
2022/09/19 08:18:13;;;;;;;4.03;2.13;;;15.10;61.30;;;;;;5031851;28;20489;-49
2022/09/19 08:20:40;;;;;;;5.90;1.87;;;15.00;61.70;;;;;;5032343;28;20451;-48
2022/09/19 08:23:09;;;;;;;12.30;2.10;;;15.20;62.10;;;;;;5031337;28;20444;-50
2022/09/19 08:25:38;;;;;;;13.87;2.23;;;15.40;61.20;;;;;;5032908;28;20471;-49
2022/09/19 08:28:04;;;;;;;5.60;1.47;;;15.30;60.50;;;;;;5031729;28;20740;-52
2022/09/19 08:30:30;;;;;;;11.40;2.10;;;15.40;60.70;;;;;;5032680;28;20749;-49
2022/09/19 08:32:56;;;;;;;3.83;1.70;;;15.30;60.50;;;;;;5030989;28;20605;-49
2022/09/19 08:35:23;;;;;;;3.70;1.67;;;15.00;61.30;;;;;;5032252;28;20494;-49
2022/09/19 08:38:03;;;;;;;12.07;2.20;;;15.00;61.70;;;;;;5031912;28;20447;-48
2022/09/19 08:40:31;;;;;;;5.77;1.77;;;15.10;62.20;;;;;;5032231;28;20440;-49
2022/09/19 08:42:59;;;;;;;4.90;1.83;;;15.10;62.00;;;;;;5032501;28;20454;-49
2022/09/19 08:45:44;;;;;;;4.57;1.87;;;15.20;62.00;;;;;;5032077;28;20468;-48
2022/09/19 08:48:17;;;;;;;9.90;1.90;;;15.30;61.70;;;;;;5022570;28;20454;-47
2022/09/19 08:50:52;;;;;;;7.80;1.77;;;15.50;61.40;;;;;;5030556;28;20523;-50
2022/09/19 08:53:27;;;;;;;3.67;2.00;;;15.30;60.50;;;;;;5031449;28;20480;-47
2022/09/19 08:55:56;;;;;;;6.70;2.10;;;15.40;60.80;;;;;;5031189;28;20459;-53
2022/09/19 08:58:24;;;;;;;7.30;2.00;;;15.50;60.70;;;;;;5028894;28;20479;-53
2022/09/19 09:00:52;;;;;;;5.50;2.40;;;15.70;60.30;;;;;;5021834;28;20940;-49
2022/09/19 09:03:45;;;;;;;8.30;1.90;;;15.70;59.80;;;;;;5030268;28;20783;-51
2022/09/19 09:06:46;;;;;;;12.90;2.33;;;15.70;60.30;;;;;;5030888;28;20462;-52
2022/09/19 09:09:37;;;;;;;11.37;2.00;;;15.70;60.20;;;;;;5022124;28;20444;-50
2022/09/19 09:12:35;;;;;;;7.33;2.70;;;15.80;60.30;;;;;;5027909;28;20539;-48
2022/09/19 09:15:13;;;;;;;6.67;2.10;;;15.80;60.00;;;;;;5024532;28;20452;-52
2022/09/19 09:17:59;;;;;;;5.77;1.90;;;15.90;60.00;;;;;;5028832;28;20530;-49
2022/09/19 09:20:49;;;;;;;8.83;2.20;;;15.90;59.80;;;;;;5026647;28;20456;-51
2022/09/19 09:23:26;;;;;;;7.77;1.83;;;16.00;59.40;;;;;;5027785;28;20463;-50
2022/09/19 09:26:00;;;;;;;5.60;1.97;;;16.10;59.30;;;;;;5018060;28;20452;-50
2022/09/19 09:28:53;;;;;;;5.50;1.80;;;16.10;59.10;;;;;;5022158;28;20444;-47
2022/09/19 09:31:34;;;;;;;3.13;1.77;;;16.00;58.90;;;;;;5027802;28;20529;-48
2022/09/19 09:34:28;;;;;;;8.40;2.33;;;16.20;59.00;;;;;;5028733;28;20484;-49
2022/09/19 09:37:19;;;;;;;6.13;2.20;;;16.10;58.70;;;;;;5029453;28;20431;-48
2022/09/19 09:40:00;;;;;;;5.50;1.50;;;16.10;58.80;;;;;;5024955;28;20444;-48
2022/09/19 09:43:02;;;;;;;5.57;2.07;;;16.10;59.00;;;;;;5029931;28;20451;-48
2022/09/19 09:45:49;;;;;;;4.33;2.00;;;16.20;58.70;;;;;;5025652;28;20895;-48
2022/09/19 09:48:27;;;;;;;4.20;1.63;;;16.30;58.60;;;;;;5019932;28;20895;-47
2022/09/19 09:51:20;;;;;;;5.70;1.90;;;16.20;58.20;;;;;;5024807;28;20459;-48
2022/09/19 09:53:51;;;;;;;5.80;1.90;;;16.20;58.10;;;;;;5023441;28;20476;-49
2022/09/19 09:56:44;;;;;;;3.53;1.67;;;16.40;57.60;;;;;;5026333;28;20482;-48
2022/09/19 10:05:36;;;;;;;8.43;2.50;;;16.30;57.80;;;;;;5026207;28;20531;-47
2022/09/19 10:08:27;;;;;;;6.30;2.17;;;16.40;57.80;;;;;;5024313;28;20510;-51
2022/09/19 10:11:04;;;;;;;2.87;1.63;;;16.50;57.70;;;;;;5028386;28;20456;-50
2022/09/19 10:13:40;;;;;;;3.00;1.90;;;16.60;57.50;;;;;;5024028;28;20488;-48
2022/09/19 10:16:07;;;;;;;4.80;2.03;;;16.80;56.70;;;;;;5023968;28;20878;-47
2022/09/19 10:18:57;;;;;;;4.00;1.83;;;17.00;56.50;;;;;;5025994;28;20449;-50
2022/09/19 10:21:23;;;;;;;4.47;2.00;;;17.10;56.00;;;;;;5024648;28;20918;-49
2022/09/19 10:23:49;;;;;;;8.53;2.33;;;17.10;56.10;;;;;;5025629;28;20958;-49
2022/09/19 10:26:19;;;;;;;11.43;2.07;;;17.10;56.20;;;;;;5028307;28;20444;-50
2022/09/19 10:28:59;;;;;;;5.00;2.13;;;17.10;56.20;;;;;;5025740;28;20197;-50
2022/09/19 10:31:32;;;;;;;2.03;1.43;;;17.10;56.20;;;;;;5027846;28;20435;-52
2022/09/19 10:34:04;;;;;;;2.97;1.90;;;17.00;55.80;;;;;;5026641;28;20495;-50
2022/09/19 10:36:33;;;;;;;2.90;2.13;;;17.00;55.90;;;;;;5025276;28;20451;-47
2022/09/19 10:39:12;;;;;;;5.10;1.93;;;16.90;56.20;;;;;;5021400;28;21031;-49
2022/09/19 10:41:42;;;;;;;6.27;1.63;;;16.60;56.90;;;;;;5020371;28;20448;-47
2022/09/19 10:44:24;;;;;;;2.70;1.97;;;16.90;57.10;;;;;;5027749;28;20496;-49
2022/09/19 10:46:54;;;;;;;5.47;2.13;;;17.10;56.90;;;;;;5031230;28;20779;-52
2022/09/19 10:49:25;;;;;;;10.03;1.93;;;17.30;56.80;;;;;;5025674;28;20464;-51
2022/09/19 10:51:55;;;;;;;5.37;1.70;;;17.30;56.40;;;;;;5021494;28;20448;-48
2022/09/19 10:54:31;;;;;;;60.97;30.37;;;17.30;56.30;;;;;;5027531;28;20546;-48
2022/09/19 10:56:58;;;;;;;6.50;3.40;;;17.50;56.20;;;;;;5029048;28;21319;-49
2022/09/19 10:59:46;;;;;;;2.50;1.97;;;17.60;56.10;;;;;;5028303;28;20456;-47
2022/09/19 11:02:25;;;;;;;3.30;1.70;;;17.80;55.60;;;;;;5028565;28;20443;-48
2022/09/19 11:05:03;;;;;;;9.83;1.50;;;17.90;56.30;;;;;;5028573;28;20448;-49
2022/09/19 11:07:48;;;;;;;4.67;2.03;;;17.90;55.50;;;;;;5027165;28;20935;-48
2022/09/19 11:10:33;;;;;;;5.10;1.90;;;18.00;55.30;;;;;;5027355;28;20588;-49
2022/09/19 11:13:20;;;;;;;3.33;1.67;;;18.20;54.80;;;;;;5028250;28;20582;-50
2022/09/19 11:16:19;;;;;;;4.13;1.67;;;18.10;54.60;;;;;;5024714;28;20447;-48
2022/09/19 11:18:54;;;;;;;6.13;2.23;;;18.20;55.10;;;;;;5024959;28;20501;-51
2022/09/19 11:21:31;;;;;;;3.83;1.50;;;18.10;55.20;;;;;;5028470;28;20813;-48
2022/09/19 11:24:05;;;;;;;6.00;1.80;;;18.10;55.30;;;;;;5029609;28;20432;-51
2022/09/19 11:26:52;;;;;;;7.10;1.63;;;18.30;55.00;;;;;;5023983;28;20505;-48
2022/09/19 11:29:36;;;;;;;5.00;1.70;;;18.30;55.90;;;;;;5028774;28;20947;-47
2022/09/19 11:32:21;;;;;;;2.20;1.57;;;18.60;56.30;;;;;;5026331;28;20486;-47
2022/09/19 11:35:14;;;;;;;4.53;1.60;;;18.60;54.10;;;;;;5027448;28;20904;-48
2022/09/19 11:38:15;;;;;;;3.73;1.60;;;18.70;54.00;;;;;;5021678;28;20532;-48
2022/09/19 11:40:46;;;;;;;4.00;2.03;;;18.90;54.20;;;;;;5021387;28;20451;-52
2022/09/19 11:43:29;;;;;;;6.57;1.80;;;18.90;53.60;;;;;;5029131;28;20514;-48
2022/09/19 11:46:20;;;;;;;2.40;1.40;;;19.00;53.60;;;;;;5027994;28;21013;-49
2022/09/19 11:48:55;;;;;;;4.50;1.60;;;19.20;52.60;;;;;;5016930;28;20444;-50
2022/09/19 11:51:47;;;;;;;3.07;1.60;;;19.30;53.30;;;;;;5024777;28;20883;-51
2022/09/19 11:54:44;;;;;;;3.13;1.50;;;19.30;52.50;;;;;;5022671;28;20535;-49
2022/09/19 11:57:13;;;;;;;3.50;1.80;;;19.20;52.50;;;;;;5018951;28;20499;-48
2022/09/19 11:59:49;;;;;;;3.80;1.67;;;19.00;52.70;;;;;;5016092;28;20525;-49
2022/09/19 12:02:39;;;;;;;3.10;1.30;;;19.00;53.10;;;;;;5011293;28;20432;-49
2022/09/19 12:05:24;;;;;;;4.53;1.73;;;19.10;53.00;;;;;;5027143;28;20493;-49
2022/09/19 12:07:50;;;;;;;3.83;1.57;;;18.90;53.00;;;;;;5025908;28;20435;-49
2022/09/19 12:10:43;;;;;;;1.97;1.50;;;19.00;53.40;;;;;;5029823;28;20556;-49
2022/09/19 12:13:24;;;;;;;4.13;1.83;;;19.10;53.20;;;;;;5028922;28;20491;-50
2022/09/19 12:15:58;;;;;;;3.90;1.33;;;19.20;53.30;;;;;;5023711;28;21046;-52
2022/09/19 12:18:44;;;;;;;2.60;1.70;;;19.20;53.00;;;;;;5032055;28;20448;-48
2022/09/19 12:21:12;;;;;;;10.27;1.80;;;19.20;52.30;;;;;;5033015;28;20443;-51
2022/09/19 12:26:46;;;;;;;5.70;2.00;;;19.30;52.70;;;;;;5025882;28;20554;-49
2022/09/19 12:29:19;;;;;;;3.50;1.53;;;19.10;52.40;;;;;;5029615;28;20446;-48
2022/09/19 12:31:53;;;;;;;7.67;6.93;;;19.00;53.00;;;;;;5027029;28;20452;-49
2022/09/19 12:34:44;;;;;;;5.90;2.30;;;19.00;53.30;;;;;;5017502;28;20494;-48
2022/09/19 12:37:35;;;;;;;3.00;1.70;;;19.20;53.90;;;;;;5031063;28;20509;-48
2022/09/19 12:40:16;;;;;;;2.70;1.63;;;19.40;53.00;;;;;;5032367;28;20479;-51
2022/09/19 12:42:52;;;;;;;2.00;1.60;;;19.60;52.20;;;;;;5027476;28;20800;-49
2022/09/19 12:45:36;;;;;;;2.87;1.33;;;19.60;52.00;;;;;;5028676;28;20927;-49
2022/09/19 12:48:22;;;;;;;3.23;1.30;;;19.70;51.90;;;;;;5026873;28;20543;-48
2022/09/19 12:50:50;;;;;;;5.90;1.53;;;19.70;51.80;;;;;;5028517;28;20466;-52
2022/09/19 12:53:31;;;;;;;4.00;2.30;;;19.40;52.10;;;;;;5028206;28;20499;-53
2022/09/19 12:56:19;;;;;;;3.50;1.53;;;19.30;52.80;;;;;;5025989;28;20448;-53
2022/09/19 12:59:08;;;;;;;1.60;1.30;;;19.60;52.80;;;;;;5029477;28;20444;-53
2022/09/19 13:01:49;;;;;;;3.90;2.00;;;19.50;51.50;;;;;;5028704;28;20443;-49
2022/09/19 13:04:25;;;;;;;3.33;1.70;;;19.80;51.70;;;;;;5022076;28;20436;-47
2022/09/19 13:06:55;;;;;;;1.60;1.30;;;19.70;51.40;;;;;;5028545;28;20865;-51
2022/09/19 13:09:27;;;;;;;4.03;1.60;;;19.80;51.60;;;;;;5023030;28;20460;-56
2022/09/19 13:12:00;;;;;;;5.13;1.20;;;19.60;51.20;;;;;;5031754;28;20444;-49
2022/09/19 13:14:58;;;;;;;1.90;1.37;;;19.70;51.10;;;;;;5027412;28;20602;-50
2022/09/19 13:26:16;;;;;;;3.40;1.50;;;20.00;56.00;;;;;;5026935;28;20516;-49
2022/09/19 13:28:56;;;;;;;3.70;2.00;;;20.30;56.30;;;;;;5030464;28;20440;-51
2022/09/19 13:32:01;;;;;;;3.20;1.30;;;20.40;56.70;;;;;;5024985;28;20447;-51
2022/09/19 13:34:39;;;;;;;8.63;1.57;;;20.70;56.00;;;;;;5011330;28;20502;-49
2022/09/19 13:37:26;;;;;;;1.00;0.90;;;20.70;54.20;;;;;;5028761;28;20502;-53
2022/09/19 13:40:27;;;;;;;7.63;1.70;;;20.70;53.10;;;;;;5021289;28;20594;-50
2022/09/19 13:43:14;;;;;;;2.03;1.30;;;20.30;52.30;;;;;;5019176;28;20459;-49
2022/09/19 13:45:49;;;;;;;2.43;1.30;;;20.20;52.30;;;;;;5028177;28;20804;-49